createdAt,value
2022-11-27T00:01:33.787Z,89.85
2022-11-27T00:04:00.772Z,89.96
2022-11-27T00:06:29.201Z,90.07
2022-11-27T00:09:00.593Z,89.82
2022-11-27T00:11:29.124Z,89.95
2022-11-27T00:13:56.471Z,90.23
2022-11-27T00:16:24.819Z,90.06
2022-11-27T00:18:52.475Z,90.12
2022-11-27T00:21:23.007Z,89.93
2022-11-27T00:23:53.997Z,89.88
2022-11-27T00:26:21.835Z,89.88
2022-11-27T00:28:48.927Z,89.79
2022-11-27T00:31:19.005Z,89.82
2022-11-27T00:33:46.253Z,87.79
2022-11-27T00:36:14.717Z,89.32
2022-11-27T00:38:42.232Z,89.74
2022-11-27T00:41:10.912Z,89.37
2022-11-27T00:43:44.475Z,89.70
2022-11-27T00:46:22.671Z,89.96
2022-11-27T00:48:52.473Z,89.78
2022-11-27T00:51:21.156Z,89.75
2022-11-27T00:53:48.351Z,89.59
2022-11-27T00:56:25.561Z,90.01
2022-11-27T00:58:53.037Z,89.29
2022-11-27T01:01:25.138Z,89.88
2022-11-27T01:03:52.194Z,89.54
2022-11-27T01:06:20.829Z,89.56
2022-11-27T01:08:48.277Z,89.90
2022-11-27T01:11:25.874Z,89.73
2022-11-27T01:13:53.494Z,89.66
2022-11-27T01:16:22.803Z,89.40
2022-11-27T01:18:50.987Z,89.77
2022-11-27T01:21:21.187Z,89.34
2022-11-27T01:23:49.849Z,89.43
2022-11-27T01:26:18.547Z,89.43
2022-11-27T01:28:46.236Z,89.58
2022-11-27T01:31:16.684Z,89.10
2022-11-27T01:33:44.348Z,89.30
2022-11-27T01:36:13.450Z,89.33
2022-11-27T01:38:40.250Z,89.39
2022-11-27T01:41:16.316Z,89.46
2022-11-27T01:43:46.597Z,89.52
2022-11-27T01:46:35.177Z,89.42
2022-11-27T01:49:11.244Z,89.00
2022-11-27T01:51:43.355Z,89.69
2022-11-27T01:54:11.118Z,89.40
2022-11-27T01:56:40.402Z,89.39
2022-11-27T01:59:08.199Z,88.40
2022-11-27T02:01:35.170Z,90.02
2022-11-27T02:04:02.466Z,89.74
2022-11-27T02:06:29.548Z,88.69
2022-11-27T02:08:56.754Z,89.81
2022-11-27T02:11:26.349Z,89.86
2022-11-27T02:14:09.826Z,89.71
2022-11-27T02:17:08.905Z,90.12
2022-11-27T02:19:47.515Z,89.86
2022-11-27T02:22:47.586Z,90.10
2022-11-27T02:25:28.017Z,90.15
2022-11-27T02:28:12.508Z,89.33
2022-11-27T02:30:47.244Z,89.99
2022-11-27T02:33:19.788Z,90.06
2022-11-27T02:36:12.189Z,89.88
2022-11-27T02:38:48.191Z,89.99
2022-11-27T02:41:37.306Z,90.28
2022-11-27T02:44:07.971Z,90.41
2022-11-27T02:46:35.112Z,90.31
2022-11-27T02:49:06.875Z,89.98
2022-11-27T02:51:42.513Z,90.26
2022-11-27T02:54:15.367Z,90.23
2022-11-27T02:56:44.555Z,90.31
2022-11-27T02:59:13.880Z,90.66
2022-11-27T03:01:49.694Z,90.24
2022-11-27T03:04:21.836Z,90.61
2022-11-27T03:06:56.800Z,90.44
2022-11-27T03:09:34.472Z,92.35
2022-11-27T03:12:02.915Z,91.98
2022-11-27T03:14:29.788Z,91.63
2022-11-27T03:17:02.275Z,91.88
2022-11-27T03:19:41.311Z,91.84
2022-11-27T03:22:08.106Z,91.47
2022-11-27T03:24:36.234Z,91.18
2022-11-27T03:27:04.346Z,90.90
2022-11-27T03:29:47.186Z,91.90
2022-11-27T03:32:14.955Z,91.66
2022-11-27T03:34:42.397Z,91.17
2022-11-27T03:37:09.627Z,90.95
2022-11-27T03:39:36.760Z,90.96
2022-11-27T03:42:24.506Z,90.78
2022-11-27T03:44:57.108Z,91.66
2022-11-27T03:47:26.775Z,91.10
2022-11-27T03:50:21.680Z,91.02
2022-11-27T03:52:48.390Z,90.57
2022-11-27T03:55:25.572Z,91.09
2022-11-27T03:58:06.368Z,91.04
2022-11-27T04:00:40.601Z,90.88
2022-11-27T04:03:13.450Z,90.85
2022-11-27T04:05:40.850Z,90.92
2022-11-27T04:08:07.597Z,90.96
2022-11-27T04:10:34.314Z,91.35
2022-11-27T04:13:01.034Z,90.82
2022-11-27T04:15:27.802Z,91.09
2022-11-27T04:17:54.476Z,91.18
2022-11-27T04:20:21.273Z,91.20
2022-11-27T04:22:47.951Z,91.09
2022-11-27T04:25:14.713Z,91.40
2022-11-27T04:27:41.477Z,90.87
2022-11-27T04:30:08.670Z,91.20
2022-11-27T04:32:35.441Z,91.66
2022-11-27T04:35:02.120Z,91.65
2022-11-27T04:37:28.831Z,91.33
2022-11-27T04:39:55.506Z,91.28
2022-11-27T04:42:22.267Z,91.08
2022-11-27T04:44:48.948Z,91.38
2022-11-27T04:47:15.754Z,91.35
2022-11-27T04:49:42.508Z,91.33
2022-11-27T04:52:10.920Z,91.48
2022-11-27T04:54:38.217Z,91.58
2022-11-27T04:57:05.149Z,91.37
2022-11-27T04:59:31.945Z,91.85
2022-11-27T05:01:58.770Z,91.61
2022-11-27T05:04:25.574Z,91.51
2022-11-27T05:06:52.331Z,91.43
2022-11-27T05:09:19.037Z,91.27
2022-11-27T05:11:45.873Z,91.60
2022-11-27T05:14:16.890Z,91.22
2022-11-27T05:16:55.290Z,91.24
2022-11-27T05:19:24.075Z,91.15
2022-11-27T05:21:51.516Z,91.19
2022-11-27T05:24:20.572Z,90.76
2022-11-27T05:30:37.074Z,91.51
2022-11-27T05:33:03.821Z,91.17
2022-11-27T05:35:30.512Z,91.47
2022-11-27T05:37:57.192Z,91.63
2022-11-27T05:40:23.985Z,91.53
2022-11-27T05:42:50.765Z,91.58
2022-11-27T05:45:17.623Z,91.63
2022-11-27T05:47:44.401Z,91.90
2022-11-27T05:50:11.195Z,92.02
2022-11-27T05:52:37.956Z,92.63
2022-11-27T05:55:05.008Z,92.14
2022-11-27T05:57:31.752Z,92.31
2022-11-27T05:59:58.918Z,92.45
2022-11-27T06:02:29.558Z,93.49
2022-11-27T06:04:56.710Z,93.46
2022-11-27T06:07:23.479Z,93.06
2022-11-27T06:09:50.391Z,92.93
2022-11-27T06:12:17.108Z,92.53
2022-11-27T06:14:43.864Z,91.87
2022-11-27T06:17:10.629Z,92.81
2022-11-27T06:19:37.349Z,92.48
2022-11-27T06:22:04.068Z,92.49
2022-11-27T06:24:30.780Z,92.31
2022-11-27T06:26:57.504Z,92.87
2022-11-27T06:29:24.306Z,92.18
2022-11-27T06:31:51.123Z,92.57
2022-11-27T06:34:17.909Z,92.35
2022-11-27T06:36:44.682Z,92.24
2022-11-27T06:39:12.103Z,92.39
2022-11-27T06:41:38.982Z,92.18
2022-11-27T06:44:05.661Z,92.26
2022-11-27T06:46:32.392Z,92.14
2022-11-27T06:48:59.729Z,92.19
2022-11-27T06:51:29.653Z,92.35
2022-11-27T06:53:57.185Z,92.36
2022-11-27T06:56:26.311Z,92.09
2022-11-27T06:58:54.664Z,91.89
2022-11-27T07:01:22.627Z,92.12
2022-11-27T07:03:49.470Z,92.08
2022-11-27T07:06:19.805Z,92.13
2022-11-27T07:08:46.671Z,91.53
2022-11-27T07:11:15.030Z,91.85
2022-11-27T07:13:42.252Z,91.94
2022-11-27T07:16:10.953Z,92.01
2022-11-27T07:18:40.795Z,91.81
2022-11-27T07:21:07.835Z,92.06
2022-11-27T07:23:35.552Z,92.33
2022-11-27T07:26:10.780Z,92.23
2022-11-27T07:28:38.260Z,92.00
2022-11-27T07:31:05.796Z,92.27
2022-11-27T07:33:32.791Z,92.83
2022-11-27T07:36:07.021Z,92.63
2022-11-27T07:38:34.662Z,92.99
2022-11-27T07:41:03.183Z,92.83
2022-11-27T07:43:30.951Z,92.18
2022-11-27T07:45:57.888Z,92.54
2022-11-27T07:48:28.062Z,92.37
2022-11-27T07:50:54.824Z,92.17
2022-11-27T07:53:21.583Z,92.57
2022-11-27T07:55:48.268Z,92.62
2022-11-27T07:58:15.022Z,92.80
2022-11-27T08:00:41.923Z,92.59
2022-11-27T08:03:10.557Z,92.14
2022-11-27T08:05:38.254Z,91.58
2022-11-27T08:08:05.258Z,92.34
2022-11-27T08:10:35.609Z,92.39
2022-11-27T08:13:02.310Z,92.33
2022-11-27T08:15:29.292Z,92.85
2022-11-27T08:17:56.187Z,92.58
2022-11-27T08:20:23.350Z,92.25
2022-11-27T08:22:50.670Z,92.07
2022-11-27T08:25:17.875Z,91.75
2022-11-27T08:27:44.793Z,91.83
2022-11-27T08:30:11.727Z,91.09
2022-11-27T08:32:39.728Z,91.88
2022-11-27T08:35:07.111Z,92.16
2022-11-27T08:37:34.187Z,92.81
2022-11-27T08:40:01.189Z,92.22
2022-11-27T08:42:27.943Z,91.66
2022-11-27T08:44:54.709Z,90.68
2022-11-27T08:47:21.508Z,92.86
2022-11-27T08:49:48.187Z,92.15
2022-11-27T08:52:14.947Z,91.84
2022-11-27T08:54:41.880Z,91.67
2022-11-27T08:57:08.997Z,91.73
2022-11-27T08:59:35.708Z,91.46
2022-11-27T09:02:02.463Z,91.22
2022-11-27T09:04:29.444Z,90.83
2022-11-27T09:06:58.594Z,90.44
2022-11-27T09:09:27.183Z,89.48
2022-11-27T09:11:56.901Z,90.10
2022-11-27T09:14:23.588Z,88.72
2022-11-27T09:16:50.432Z,89.91
2022-11-27T09:19:18.244Z,89.75
2022-11-27T09:21:45.101Z,90.43
2022-11-27T09:24:11.847Z,90.23
2022-11-27T09:26:39.366Z,90.18
2022-11-27T09:29:06.444Z,90.07
2022-11-27T09:31:33.316Z,89.10
2022-11-27T09:34:00.116Z,89.99
2022-11-27T09:36:27.273Z,89.05
2022-11-27T09:38:54.768Z,90.54
2022-11-27T09:41:36.748Z,89.12
2022-11-27T09:44:14.311Z,89.55
2022-11-27T09:46:42.838Z,89.65
2022-11-27T09:49:17.558Z,89.30
2022-11-27T09:51:51.351Z,89.53
2022-11-27T09:54:24.078Z,89.11
2022-11-27T09:56:54.149Z,88.86
2022-11-27T09:59:34.555Z,89.07
2022-11-27T10:02:01.389Z,89.26
2022-11-27T10:04:30.398Z,89.14
2022-11-27T10:07:12.832Z,88.47
2022-11-27T10:09:39.623Z,88.57
2022-11-27T10:12:22.701Z,88.55
2022-11-27T10:15:06.869Z,88.54
2022-11-27T10:17:49.025Z,88.67
2022-11-27T10:20:15.741Z,89.12
2022-11-27T10:23:10.584Z,88.69
2022-11-27T10:25:37.277Z,88.18
2022-11-27T10:28:41.950Z,88.34
2022-11-27T10:31:08.580Z,88.17
2022-11-27T10:33:42.642Z,87.88
2022-11-27T10:36:15.381Z,87.81
2022-11-27T10:38:43.820Z,87.74
2022-11-27T10:41:48.149Z,87.22
2022-11-27T10:44:27.888Z,86.46
2022-11-27T10:47:02.105Z,85.84
2022-11-27T10:49:28.951Z,86.06
2022-11-27T10:51:55.764Z,86.32
2022-11-27T10:54:27.868Z,86.45
2022-11-27T10:57:16.243Z,87.47
2022-11-27T11:00:01.600Z,87.49
2022-11-27T11:02:38.049Z,87.40
2022-11-27T11:08:20.641Z,86.77
2022-11-27T11:10:54.114Z,86.93
2022-11-27T11:13:24.229Z,84.03
2022-11-27T11:15:56.909Z,87.81
2022-11-27T11:18:30.679Z,86.54
2022-11-27T11:21:00.553Z,86.97
2022-11-27T11:23:32.926Z,85.72
2022-11-27T11:26:28.180Z,86.19
2022-11-27T11:28:58.381Z,87.35
2022-11-27T11:31:37.337Z,86.50
2022-11-27T11:34:20.239Z,88.20
2022-11-27T11:37:01.508Z,88.23
2022-11-27T11:39:33.269Z,87.18
2022-11-27T11:42:00.143Z,87.82
2022-11-27T11:44:39.123Z,86.75
2022-11-27T11:47:06.141Z,90.65
2022-11-27T11:49:35.924Z,90.12
2022-11-27T11:52:16.783Z,88.39
2022-11-27T11:55:11.342Z,89.56
2022-11-27T11:58:22.941Z,89.83
2022-11-27T12:01:25.583Z,90.58
2022-11-27T12:04:13.245Z,90.04
2022-11-27T12:07:17.120Z,88.92
2022-11-27T12:10:02.061Z,89.82
2022-11-27T12:12:56.795Z,88.61
2022-11-27T12:15:39.848Z,88.75
2022-11-27T12:18:09.393Z,88.70
2022-11-27T12:20:55.002Z,87.71
2022-11-27T12:23:34.126Z,88.16
2022-11-27T12:26:13.027Z,87.57
2022-11-27T12:29:17.153Z,86.25
2022-11-27T12:31:57.821Z,88.12
2022-11-27T12:35:03.070Z,90.08
2022-11-27T12:37:35.983Z,88.91
2022-11-27T12:40:12.086Z,90.51
2022-11-27T12:42:51.073Z,93.18
2022-11-27T12:45:35.397Z,90.98
2022-11-27T12:48:12.022Z,90.38
2022-11-27T12:50:44.389Z,91.70
2022-11-27T12:53:25.546Z,91.58
2022-11-27T12:56:09.504Z,90.52
2022-11-27T12:58:41.756Z,89.69
2022-11-27T13:01:17.694Z,90.62
2022-11-27T13:04:13.671Z,91.46
2022-11-27T13:06:51.750Z,88.93
2022-11-27T13:09:52.671Z,89.95
2022-11-27T13:12:35.662Z,89.57
2022-11-27T13:15:07.381Z,90.13
2022-11-27T13:17:40.860Z,91.06
2022-11-27T13:20:17.149Z,91.08
2022-11-27T13:22:44.068Z,90.47
2022-11-27T13:25:14.810Z,91.01
2022-11-27T13:27:46.766Z,91.10
2022-11-27T13:30:24.274Z,89.56
2022-11-27T13:32:58.066Z,88.97
2022-11-27T13:35:40.261Z,90.08
2022-11-27T13:38:26.029Z,90.74
2022-11-27T13:40:56.243Z,89.70
2022-11-27T13:43:29.270Z,90.12
2022-11-27T13:46:18.259Z,89.10
2022-11-27T13:49:03.706Z,90.15
2022-11-27T13:51:34.167Z,89.11
2022-11-27T13:54:16.247Z,89.80
2022-11-27T13:56:43.104Z,88.96
2022-11-27T13:59:22.154Z,89.83
2022-11-27T14:02:08.509Z,88.40
2022-11-27T14:04:36.309Z,89.39
2022-11-27T14:07:07.248Z,89.65
2022-11-27T14:09:45.672Z,88.87
2022-11-27T14:12:21.327Z,88.78
2022-11-27T14:15:23.638Z,88.80
2022-11-27T14:17:53.916Z,88.44
2022-11-27T14:20:25.269Z,88.28
2022-11-27T14:23:11.146Z,89.88
2022-11-27T14:25:39.582Z,89.37
2022-11-27T14:28:15.676Z,88.62
2022-11-27T14:30:49.477Z,89.05
2022-11-27T14:33:19.428Z,88.86
2022-11-27T14:35:55.593Z,89.67
2022-11-27T14:38:23.872Z,89.42
2022-11-27T14:40:53.790Z,89.70
2022-11-27T14:43:31.477Z,90.13
2022-11-27T14:46:01.960Z,89.09
2022-11-27T14:48:41.982Z,90.17
2022-11-27T14:51:15.463Z,90.44
2022-11-27T14:53:42.831Z,89.82
2022-11-27T14:56:10.030Z,90.42
2022-11-27T14:58:40.862Z,89.73
2022-11-27T15:01:08.303Z,89.55
2022-11-27T15:03:35.284Z,89.97
2022-11-27T15:06:05.542Z,89.36
2022-11-27T15:08:36.080Z,90.21
2022-11-27T15:11:05.031Z,90.54
2022-11-27T15:13:35.114Z,90.03
2022-11-27T15:16:23.284Z,90.32
2022-11-27T15:18:54.542Z,89.51
2022-11-27T15:21:25.792Z,90.08
2022-11-27T15:23:55.274Z,90.21
2022-11-27T15:26:45.085Z,90.02
2022-11-27T15:29:38.126Z,89.94
2022-11-27T15:32:22.954Z,89.54
2022-11-27T15:34:51.159Z,89.69
2022-11-27T15:37:24.033Z,90.37
2022-11-27T15:39:52.868Z,90.11
2022-11-27T15:42:20.793Z,90.58
2022-11-27T15:44:49.193Z,90.24
2022-11-27T15:47:36.367Z,90.46
2022-11-27T15:50:05.423Z,90.42
2022-11-27T15:52:32.190Z,90.24
2022-11-27T15:54:59.070Z,89.74
2022-11-27T15:57:26.516Z,89.92
2022-11-27T15:59:53.309Z,89.87
2022-11-27T16:02:20.106Z,89.97
2022-11-27T16:04:46.822Z,89.95
2022-11-27T16:07:13.684Z,90.44
2022-11-27T16:09:40.806Z,89.74
2022-11-27T16:12:07.751Z,90.17
2022-11-27T16:14:34.674Z,90.30
2022-11-27T16:17:01.607Z,89.91
2022-11-27T16:19:28.871Z,90.24
2022-11-27T16:21:56.990Z,90.13
2022-11-27T16:24:24.109Z,89.90
2022-11-27T16:26:51.244Z,89.86
2022-11-27T16:29:18.261Z,89.94
2022-11-27T16:31:45.102Z,90.26
2022-11-27T16:34:12.033Z,89.63
2022-11-27T16:36:45.590Z,89.85
2022-11-27T16:39:12.908Z,90.14
2022-11-27T16:41:39.965Z,90.05
2022-11-27T16:44:13.029Z,90.58
2022-11-27T16:46:41.796Z,90.21
2022-11-27T16:49:08.639Z,90.43
2022-11-27T16:51:38.560Z,90.08
2022-11-27T16:54:08.435Z,90.58
2022-11-27T16:56:36.670Z,89.96
2022-11-27T16:59:08.989Z,90.65
2022-11-27T17:01:36.269Z,89.93
2022-11-27T17:04:07.443Z,90.65
2022-11-27T17:06:36.312Z,90.50
2022-11-27T17:09:06.134Z,90.79
2022-11-27T17:11:35.921Z,90.31
2022-11-27T17:14:06.624Z,90.65
2022-11-27T17:16:34.932Z,90.62
2022-11-27T17:19:02.269Z,90.81
2022-11-27T17:21:31.484Z,91.15
2022-11-27T17:24:02.031Z,91.53
2022-11-27T17:26:30.719Z,91.41
2022-11-27T17:28:59.673Z,91.51
2022-11-27T17:31:28.500Z,91.30
2022-11-27T17:33:57.009Z,91.25
2022-11-27T17:36:33.798Z,91.46
2022-11-27T17:39:04.747Z,91.06
2022-11-27T17:41:31.543Z,91.28
2022-11-27T17:43:58.304Z,91.13
2022-11-27T17:46:27.544Z,91.55
2022-11-27T17:48:58.140Z,91.14
2022-11-27T17:51:25.584Z,91.20
2022-11-27T17:53:52.383Z,90.65
2022-11-27T17:56:20.745Z,91.09
2022-11-27T17:58:47.928Z,91.06
2022-11-27T18:01:21.072Z,90.83
2022-11-27T18:03:48.448Z,91.33
2022-11-27T18:06:19.464Z,92.66
2022-11-27T18:08:47.237Z,93.26
2022-11-27T18:11:17.318Z,94.56
2022-11-27T18:13:44.388Z,94.25
2022-11-27T18:16:14.609Z,93.41
2022-11-27T18:18:42.192Z,92.68
2022-11-27T18:21:17.881Z,92.10
2022-11-27T18:24:20.639Z,92.05
2022-11-27T18:26:52.920Z,92.25
2022-11-27T18:29:22.161Z,92.42
2022-11-27T18:31:50.346Z,92.33
2022-11-27T18:34:17.150Z,92.04
2022-11-27T18:36:43.948Z,92.57
2022-11-27T18:39:10.750Z,92.64
2022-11-27T18:41:37.709Z,92.24
2022-11-27T18:44:04.787Z,92.13
2022-11-27T18:46:31.665Z,92.13
2022-11-27T18:48:59.263Z,92.05
2022-11-27T18:51:26.663Z,91.51
2022-11-27T18:53:54.611Z,91.86
2022-11-27T18:56:24.627Z,91.94
2022-11-27T18:58:51.620Z,91.74
2022-11-27T19:01:21.886Z,91.76
2022-11-27T19:03:49.431Z,92.32
2022-11-27T19:06:18.263Z,94.41
2022-11-27T19:08:45.341Z,94.94
2022-11-27T19:11:15.424Z,93.96
2022-11-27T19:13:43.566Z,94.07
2022-11-27T19:16:16.836Z,93.35
2022-11-27T19:18:43.946Z,93.01
2022-11-27T19:21:15.709Z,92.58
2022-11-27T19:23:43.276Z,93.30
2022-11-27T19:26:12.312Z,92.65
2022-11-27T19:28:40.363Z,94.41
2022-11-27T19:31:10.392Z,93.66
2022-11-27T19:33:38.347Z,93.08
2022-11-27T19:36:11.715Z,93.00
2022-11-27T19:38:40.962Z,92.81
2022-11-27T19:41:13.069Z,92.58
2022-11-27T19:43:40.006Z,92.50
2022-11-27T19:46:28.288Z,93.36
2022-11-27T19:48:57.354Z,93.14
2022-11-27T19:51:25.603Z,92.95
2022-11-27T19:53:52.407Z,92.77
2022-11-27T19:56:19.590Z,92.15
2022-11-27T19:58:46.510Z,92.11
2022-11-27T20:01:16.689Z,92.44
2022-11-27T20:03:44.116Z,92.84
2022-11-27T20:06:16.205Z,92.99
2022-11-27T20:08:45.075Z,92.72
2022-11-27T20:11:15.101Z,92.07
2022-11-27T20:13:41.993Z,92.24
2022-11-27T20:16:14.280Z,92.37
2022-11-27T20:18:41.727Z,92.33
2022-11-27T20:21:17.429Z,92.71
2022-11-27T20:23:45.882Z,92.65
2022-11-27T20:26:15.724Z,93.14
2022-11-27T20:28:43.432Z,92.54
2022-11-27T20:31:24.098Z,92.93
2022-11-27T20:33:57.223Z,92.13
2022-11-27T20:36:26.087Z,91.83
2022-11-27T20:38:55.786Z,92.40
2022-11-27T20:41:23.061Z,92.63
2022-11-27T20:43:54.100Z,92.22
2022-11-27T20:46:21.699Z,92.59
2022-11-27T20:48:50.522Z,92.24
2022-11-27T20:51:20.701Z,92.37
2022-11-27T20:53:48.526Z,92.39
2022-11-27T20:56:17.762Z,92.63
2022-11-27T20:58:45.283Z,92.17
2022-11-27T21:01:18.031Z,91.61
2022-11-27T21:03:46.311Z,91.99
2022-11-27T21:06:14.925Z,93.92
2022-11-27T21:08:42.124Z,92.89
2022-11-27T21:11:25.199Z,92.72
2022-11-27T21:13:57.988Z,91.96
2022-11-27T21:16:27.282Z,91.76
2022-11-27T21:18:59.390Z,91.87
2022-11-27T21:21:26.987Z,91.45
2022-11-27T21:23:54.031Z,91.65
2022-11-27T21:26:20.861Z,91.45
2022-11-27T21:28:47.671Z,91.47
2022-11-27T21:31:18.039Z,91.19
2022-11-27T21:33:59.589Z,91.43
2022-11-27T21:36:29.871Z,91.07
2022-11-27T21:38:57.829Z,91.46
2022-11-27T21:41:25.223Z,91.61
2022-11-27T21:43:58.151Z,91.71
2022-11-27T21:46:26.863Z,91.82
2022-11-27T21:48:58.025Z,92.32
2022-11-27T21:51:26.464Z,92.15
2022-11-27T21:53:55.516Z,92.25
2022-11-27T21:56:24.744Z,91.91
2022-11-27T21:58:51.620Z,91.06
2022-11-27T22:01:21.851Z,90.95
2022-11-27T22:03:51.540Z,90.65
2022-11-27T22:06:19.309Z,90.90
2022-11-27T22:08:47.828Z,91.25
2022-11-27T22:11:17.715Z,91.21
2022-11-27T22:13:44.982Z,91.74
2022-11-27T22:16:18.842Z,91.96
2022-11-27T22:18:46.828Z,91.05
2022-11-27T22:21:14.342Z,90.56
2022-11-27T22:23:42.164Z,91.41
2022-11-27T22:26:14.588Z,91.03
2022-11-27T22:28:41.915Z,92.32
2022-11-27T22:31:14.769Z,92.21
2022-11-27T22:33:42.551Z,91.48
2022-11-27T22:36:17.192Z,90.97
2022-11-27T22:38:45.517Z,91.43
2022-11-27T22:41:14.235Z,91.72
2022-11-27T22:43:42.351Z,91.40
2022-11-27T22:46:19.025Z,91.59
2022-11-27T22:48:46.726Z,91.56
2022-11-27T22:51:14.188Z,91.21
2022-11-27T22:53:40.991Z,89.98
2022-11-27T22:56:12.636Z,90.85
2022-11-27T22:58:41.872Z,91.06
2022-11-27T23:01:21.230Z,90.64
2022-11-27T23:03:48.286Z,90.35
2022-11-27T23:06:16.948Z,90.46
2022-11-27T23:08:45.124Z,89.67
2022-11-27T23:11:15.944Z,89.31
2022-11-27T23:13:47.957Z,89.83
2022-11-27T23:16:16.468Z,90.82
2022-11-27T23:18:43.245Z,90.30
2022-11-27T23:21:13.861Z,90.52
2022-11-27T23:23:41.231Z,91.71
2022-11-27T23:26:17.918Z,90.81
2022-11-27T23:28:45.805Z,91.04
2022-11-27T23:31:29.555Z,91.50
2022-11-27T23:33:57.008Z,90.93
2022-11-27T23:36:23.843Z,91.47
2022-11-27T23:38:50.576Z,91.35
2022-11-27T23:41:23.468Z,92.25
2022-11-27T23:43:51.547Z,91.66
2022-11-27T23:46:21.291Z,89.42
2022-11-27T23:48:48.519Z,89.98
2022-11-27T23:51:20.953Z,89.83
2022-11-27T23:53:48.029Z,89.98
2022-11-27T23:56:17.470Z,87.85
2022-11-27T23:58:47.284Z,89.41
